createdAt,value
2018-11-06T00:03:47.474Z,18.57
2018-11-06T00:08:51.398Z,19.93
2018-11-06T00:13:54.923Z,16.77
2018-11-06T00:18:58.094Z,18.30
2018-11-06T00:24:01.253Z,17.20
2018-11-06T00:29:04.414Z,17.17
2018-11-06T00:34:07.625Z,16.83
2018-11-06T00:39:11.007Z,18.00
2018-11-06T00:44:14.170Z,17.33
2018-11-06T00:49:17.346Z,15.97
2018-11-06T00:54:20.557Z,16.87
2018-11-06T00:59:24.887Z,16.57
2018-11-06T01:04:28.036Z,16.57
2018-11-06T01:09:31.215Z,16.97
2018-11-06T01:14:34.447Z,16.93
2018-11-06T01:19:38.974Z,16.90
2018-11-06T01:24:42.214Z,15.77
2018-11-06T01:29:45.361Z,16.50
2018-11-06T01:34:48.530Z,15.17
2018-11-06T01:39:52.042Z,16.03
2018-11-06T01:44:55.236Z,15.53
2018-11-06T01:49:58.367Z,14.67
2018-11-06T01:55:02.351Z,15.83
2018-11-06T02:00:07.586Z,16.27
2018-11-06T02:05:13.131Z,17.40
2018-11-06T02:10:16.687Z,15.07
2018-11-06T02:15:19.845Z,16.37
2018-11-06T02:20:23.003Z,15.17
2018-11-06T02:25:26.170Z,15.27
2018-11-06T02:30:30.251Z,16.47
2018-11-06T02:35:33.419Z,16.70
2018-11-06T02:40:36.664Z,15.33
2018-11-06T02:45:39.848Z,14.53
2018-11-06T02:50:44.281Z,14.47
2018-11-06T02:55:53.509Z,14.33
2018-11-06T03:00:58.438Z,15.33
2018-11-06T03:06:08.579Z,14.73
2018-11-06T03:11:18.358Z,15.27
2018-11-06T03:16:45.924Z,14.13
2018-11-06T03:21:49.699Z,13.67
2018-11-06T03:26:54.014Z,14.07
2018-11-06T03:32:05.738Z,15.83
2018-11-06T03:37:09.050Z,14.30
2018-11-06T03:42:13.374Z,14.50
2018-11-06T03:47:16.768Z,15.03
2018-11-06T03:52:20.326Z,14.07
2018-11-06T03:57:28.874Z,16.40
2018-11-06T04:02:32.552Z,15.90
2018-11-06T04:07:35.858Z,14.73
2018-11-06T04:12:39.777Z,15.13
2018-11-06T04:17:44.391Z,14.13
2018-11-06T04:22:47.548Z,15.40
2018-11-06T04:27:50.780Z,14.83
2018-11-06T04:32:53.950Z,14.83
2018-11-06T04:37:57.119Z,14.60
2018-11-06T04:43:00.354Z,15.27
2018-11-06T04:48:03.542Z,14.23
2018-11-06T04:53:06.738Z,13.77
2018-11-06T04:58:09.956Z,13.83
2018-11-06T05:03:13.157Z,14.40
2018-11-06T05:08:16.349Z,12.90
2018-11-06T05:13:19.545Z,13.87
2018-11-06T05:18:23.370Z,16.07
2018-11-06T05:23:26.575Z,15.30
2018-11-06T05:28:30.190Z,13.67
2018-11-06T05:33:33.402Z,15.20
2018-11-06T05:38:36.635Z,14.43
2018-11-06T05:43:40.297Z,14.90
2018-11-06T05:48:43.533Z,13.47
2018-11-06T05:53:47.350Z,14.63
2018-11-06T05:58:50.579Z,15.97
2018-11-06T06:03:53.781Z,15.97
2018-11-06T06:08:56.982Z,15.50
2018-11-06T06:14:00.177Z,15.77
2018-11-06T06:19:03.434Z,15.97
2018-11-06T06:24:06.657Z,16.97
2018-11-06T06:29:09.871Z,17.70
2018-11-06T06:34:13.102Z,17.13
2018-11-06T06:39:16.317Z,15.47
2018-11-06T06:44:19.561Z,17.50
2018-11-06T06:49:22.750Z,17.10
2018-11-06T06:54:26.238Z,16.73
2018-11-06T06:59:31.586Z,18.00
2018-11-06T07:04:36.015Z,17.23
2018-11-06T07:09:39.278Z,18.17
2018-11-06T07:14:42.497Z,17.87
2018-11-06T07:19:47.694Z,17.80
2018-11-06T07:24:50.883Z,18.00
2018-11-06T07:29:54.066Z,19.53
2018-11-06T07:34:57.412Z,18.33
2018-11-06T07:40:00.698Z,20.03
2018-11-06T07:45:03.970Z,19.67
2018-11-06T07:50:08.089Z,21.53
2018-11-06T07:55:12.904Z,20.80
2018-11-06T08:00:18.567Z,19.73
2018-11-06T08:05:21.933Z,19.67
2018-11-06T08:10:25.106Z,20.30
2018-11-06T08:15:28.296Z,16.87
2018-11-06T08:20:31.581Z,18.53
2018-11-06T08:25:34.763Z,17.90
2018-11-06T08:30:38.981Z,18.33
2018-11-06T08:35:42.234Z,17.97
2018-11-06T08:40:45.447Z,18.50
2018-11-06T08:45:48.650Z,16.47
2018-11-06T08:50:51.919Z,16.97
2018-11-06T08:55:55.222Z,16.27
2018-11-06T09:00:58.487Z,16.23
2018-11-06T09:06:01.723Z,15.13
2018-11-06T09:11:05.136Z,17.13
2018-11-06T09:16:08.422Z,16.63
2018-11-06T09:21:13.900Z,16.87
2018-11-06T09:26:17.188Z,16.67
2018-11-06T09:31:21.055Z,17.47
2018-11-06T09:36:24.287Z,17.07
2018-11-06T09:41:27.699Z,17.97
2018-11-06T09:46:30.827Z,17.93
2018-11-06T09:51:34.222Z,17.80
2018-11-06T09:56:37.454Z,18.40
2018-11-06T10:01:40.686Z,18.77
2018-11-06T10:06:44.458Z,18.67
2018-11-06T10:11:47.499Z,19.27
2018-11-06T10:16:50.919Z,19.07
2018-11-06T10:21:54.223Z,19.27
2018-11-06T10:26:57.476Z,17.57
2018-11-06T10:32:00.743Z,17.83
2018-11-06T10:37:04.035Z,17.00
2018-11-06T10:42:07.263Z,15.90
2018-11-06T10:47:10.492Z,16.10
2018-11-06T10:52:13.674Z,15.17
2018-11-06T10:57:16.918Z,16.13
2018-11-06T11:02:23.390Z,15.03
2018-11-06T11:07:26.633Z,15.27
2018-11-06T11:12:30.297Z,14.93
2018-11-06T11:17:33.690Z,14.90
2018-11-06T11:22:36.919Z,15.40
2018-11-06T11:27:40.811Z,15.00
2018-11-06T11:32:45.666Z,14.20
2018-11-06T11:37:48.996Z,14.23
2018-11-06T11:42:52.152Z,13.80
2018-11-06T11:47:55.350Z,13.50
2018-11-06T11:52:58.753Z,12.70
2018-11-06T11:58:02.010Z,12.37
2018-11-06T12:03:05.922Z,12.07
2018-11-06T12:08:09.226Z,12.43
2018-11-06T12:13:13.798Z,11.83
2018-11-06T12:18:17.792Z,11.57
2018-11-06T12:23:21.064Z,12.43
2018-11-06T12:28:24.378Z,11.10
2018-11-06T12:33:27.736Z,10.23
2018-11-06T12:38:31.066Z,9.37
2018-11-06T12:43:34.365Z,9.63
2018-11-06T12:48:37.882Z,10.27
2018-11-06T12:53:41.094Z,9.57
2018-11-06T12:58:50.152Z,9.23
2018-11-06T13:03:53.375Z,9.87
2018-11-06T13:08:58.476Z,8.43
2018-11-06T13:14:02.596Z,8.93
2018-11-06T13:19:07.005Z,8.20
2018-11-06T13:24:10.793Z,7.23
2018-11-06T13:29:19.643Z,7.97
2018-11-06T13:34:23.330Z,7.70
2018-11-06T13:39:26.570Z,8.00
2018-11-06T13:44:30.378Z,8.13
2018-11-06T13:49:33.197Z,7.37
2018-11-06T13:54:37.958Z,7.87
2018-11-06T13:59:41.240Z,7.13
2018-11-06T14:04:51.643Z,7.67
2018-11-06T14:09:57.838Z,6.37
2018-11-06T14:15:02.126Z,5.77
2018-11-06T14:20:11.107Z,5.33
2018-11-06T14:25:15.478Z,5.27
2018-11-06T14:30:20.130Z,4.93
2018-11-06T14:35:23.576Z,5.10
2018-11-06T14:40:26.806Z,5.23
2018-11-06T14:45:30.115Z,4.87
2018-11-06T14:50:33.344Z,4.13
2018-11-06T14:55:45.965Z,4.33
2018-11-06T15:10:29.165Z,5.03
2018-11-06T15:15:35.637Z,5.47
2018-11-06T15:20:39.922Z,5.13
2018-11-06T15:25:43.528Z,5.23
2018-11-06T15:30:49.072Z,5.50
2018-11-06T15:35:52.784Z,5.87
2018-11-06T15:40:57.423Z,5.90
2018-11-06T15:46:00.643Z,6.60
2018-11-06T15:51:06.446Z,6.50
2018-11-06T15:56:10.213Z,6.87
2018-11-06T16:01:13.459Z,7.00
2018-11-06T16:06:16.703Z,7.40
2018-11-06T16:11:23.196Z,6.77
2018-11-06T16:16:26.427Z,7.30
2018-11-06T16:21:34.314Z,7.73
2018-11-06T16:26:49.654Z,7.10
2018-11-06T16:31:52.892Z,7.27
2018-11-06T16:36:56.289Z,7.87
2018-11-06T16:42:34.209Z,7.97
2018-11-06T16:48:01.610Z,6.73
2018-11-06T16:53:07.082Z,8.47
2018-11-06T16:58:10.356Z,7.93
2018-11-06T17:03:18.050Z,7.80
2018-11-06T17:08:22.337Z,8.80
2018-11-06T17:13:30.321Z,7.80
2018-11-06T17:19:11.919Z,7.27
2018-11-06T17:24:18.624Z,7.83
2018-11-06T17:29:30.160Z,8.80
2018-11-06T17:34:40.333Z,8.93
2018-11-06T17:39:54.727Z,7.90
2018-11-06T17:45:01.755Z,8.27
2018-11-06T17:50:07.440Z,6.83
2018-11-06T17:55:45.251Z,7.50
2018-11-06T18:00:56.602Z,7.00
2018-11-06T18:06:05.466Z,6.87
2018-11-06T18:11:09.234Z,5.93
2018-11-06T18:16:31.247Z,6.87
2018-11-06T18:21:49.720Z,10.37
2018-11-06T18:26:55.378Z,12.20
2018-11-06T18:31:59.524Z,8.20
2018-11-06T18:37:03.391Z,7.73
2018-11-06T18:42:07.295Z,8.13
2018-11-06T18:47:11.284Z,6.80
2018-11-06T18:52:14.853Z,7.20
2018-11-06T18:57:19.247Z,5.93
2018-11-06T19:02:23.089Z,10.90
2018-11-06T19:07:26.519Z,4.70
2018-11-06T19:12:30.222Z,4.00
2018-11-06T19:17:34.974Z,3.40
2018-11-06T19:22:39.202Z,3.90
2018-11-06T19:27:42.546Z,3.80
2018-11-06T19:32:51.026Z,3.63
2018-11-06T19:37:54.633Z,3.60
2018-11-06T19:42:58.833Z,4.10
2018-11-06T19:53:43.786Z,4.33
2018-11-06T19:58:46.959Z,4.40
2018-11-06T20:03:53.307Z,5.00
2018-11-06T20:08:57.388Z,4.90
2018-11-06T20:14:00.884Z,4.73
2018-11-06T20:19:07.866Z,4.73
2018-11-06T20:24:14.188Z,4.93
2018-11-06T20:29:17.426Z,5.03
2018-11-06T20:34:21.908Z,4.70
2018-11-06T20:39:25.176Z,5.33
2018-11-06T20:44:28.362Z,5.80
2018-11-06T20:55:10.815Z,5.70
2018-11-06T21:00:19.848Z,5.57
2018-11-06T21:05:23.070Z,5.97
2018-11-06T21:10:27.963Z,5.67
2018-11-06T21:15:31.191Z,6.37
2018-11-06T21:20:34.428Z,6.77
2018-11-06T21:25:38.266Z,6.53
2018-11-06T21:30:41.462Z,6.53
2018-11-06T21:35:44.734Z,6.27
2018-11-06T21:40:48.015Z,6.17
2018-11-06T21:45:51.239Z,6.40
2018-11-06T21:50:54.463Z,6.60
2018-11-06T21:55:57.667Z,6.83
2018-11-06T22:01:00.872Z,7.53
2018-11-06T22:06:04.299Z,6.40
2018-11-06T22:11:08.102Z,7.27
2018-11-06T22:16:11.351Z,7.37
2018-11-06T22:21:14.794Z,7.30
2018-11-06T22:26:18.452Z,6.70
2018-11-06T22:31:21.739Z,7.30
2018-11-06T22:36:24.911Z,6.97
2018-11-06T22:41:28.087Z,7.00
2018-11-06T22:46:32.005Z,7.03
2018-11-06T22:51:35.206Z,7.90
2018-11-06T22:56:38.361Z,7.93
2018-11-06T23:01:41.558Z,7.23
2018-11-06T23:06:44.894Z,7.97
2018-11-06T23:11:47.999Z,7.10
2018-11-06T23:16:51.214Z,7.20
2018-11-06T23:21:54.482Z,7.43
2018-11-06T23:26:57.661Z,6.77
2018-11-06T23:32:01.098Z,6.67
2018-11-06T23:37:04.314Z,7.37
2018-11-06T23:42:07.463Z,7.57
2018-11-06T23:47:10.634Z,8.20
2018-11-06T23:52:14.560Z,7.20
2018-11-06T23:57:17.794Z,7.50
